sensor_id;sensor_type;location;lat;lon;timestamp;P1;durP1;ratioP1;P2;durP2;ratioP2
38851;SDS011;24605;50.092;9.182;2023-07-29T00:01:37;7.80;;;5.10;;
38851;SDS011;24605;50.092;9.182;2023-07-29T00:04:05;7.60;;;4.95;;
38851;SDS011;24605;50.092;9.182;2023-07-29T00:06:33;7.40;;;4.90;;
38851;SDS011;24605;50.092;9.182;2023-07-29T00:09:01;7.35;;;5.35;;
38851;SDS011;24605;50.092;9.182;2023-07-29T00:11:28;8.57;;;5.43;;
38851;SDS011;24605;50.092;9.182;2023-07-29T00:13:55;8.55;;;6.00;;
38851;SDS011;24605;50.092;9.182;2023-07-29T00:16:21;8.88;;;5.50;;
38851;SDS011;24605;50.092;9.182;2023-07-29T00:18:48;8.32;;;5.78;;
38851;SDS011;24605;50.092;9.182;2023-07-29T00:21:14;8.85;;;5.85;;
38851;SDS011;24605;50.092;9.182;2023-07-29T00:23:41;9.13;;;5.72;;
38851;SDS011;24605;50.092;9.182;2023-07-29T00:26:09;7.30;;;5.55;;
38851;SDS011;24605;50.092;9.182;2023-07-29T00:28:35;7.80;;;6.00;;
38851;SDS011;24605;50.092;9.182;2023-07-29T00:31:02;8.77;;;5.85;;
38851;SDS011;24605;50.092;9.182;2023-07-29T00:33:29;6.68;;;5.25;;
38851;SDS011;24605;50.092;9.182;2023-07-29T00:35:55;7.80;;;5.60;;
38851;SDS011;24605;50.092;9.182;2023-07-29T00:38:22;6.60;;;5.45;;
38851;SDS011;24605;50.092;9.182;2023-07-29T00:40:48;9.02;;;6.00;;
38851;SDS011;24605;50.092;9.182;2023-07-29T00:43:16;10.02;;;6.22;;
38851;SDS011;24605;50.092;9.182;2023-07-29T00:45:43;7.57;;;5.53;;
38851;SDS011;24605;50.092;9.182;2023-07-29T00:48:11;8.20;;;5.70;;
38851;SDS011;24605;50.092;9.182;2023-07-29T00:50:37;8.38;;;5.30;;
38851;SDS011;24605;50.092;9.182;2023-07-29T00:53:04;7.32;;;5.40;;
38851;SDS011;24605;50.092;9.182;2023-07-29T00:55:31;7.65;;;5.68;;
38851;SDS011;24605;50.092;9.182;2023-07-29T00:57:58;7.07;;;5.28;;
38851;SDS011;24605;50.092;9.182;2023-07-29T01:00:26;7.05;;;4.90;;
38851;SDS011;24605;50.092;9.182;2023-07-29T01:02:53;12.85;;;5.20;;
38851;SDS011;24605;50.092;9.182;2023-07-29T01:05:19;7.80;;;5.15;;
38851;SDS011;24605;50.092;9.182;2023-07-29T01:07:49;8.70;;;5.70;;
38851;SDS011;24605;50.092;9.182;2023-07-29T01:10:29;7.28;;;5.22;;
38851;SDS011;24605;50.092;9.182;2023-07-29T01:13:04;9.98;;;5.35;;
38851;SDS011;24605;50.092;9.182;2023-07-29T01:15:39;6.95;;;5.05;;
38851;SDS011;24605;50.092;9.182;2023-07-29T01:18:14;8.00;;;5.43;;
38851;SDS011;24605;50.092;9.182;2023-07-29T01:20:44;8.07;;;5.32;;
38851;SDS011;24605;50.092;9.182;2023-07-29T01:23:13;6.97;;;5.55;;
38851;SDS011;24605;50.092;9.182;2023-07-29T01:25:41;7.28;;;4.90;;
38851;SDS011;24605;50.092;9.182;2023-07-29T01:28:07;7.35;;;5.30;;
38851;SDS011;24605;50.092;9.182;2023-07-29T01:30:37;7.00;;;5.40;;
38851;SDS011;24605;50.092;9.182;2023-07-29T01:33:07;6.72;;;4.88;;
38851;SDS011;24605;50.092;9.182;2023-07-29T01:35:42;6.40;;;4.80;;
38851;SDS011;24605;50.092;9.182;2023-07-29T01:38:13;7.90;;;4.60;;
38851;SDS011;24605;50.092;9.182;2023-07-29T01:40:44;6.82;;;4.43;;
38851;SDS011;24605;50.092;9.182;2023-07-29T01:43:10;5.85;;;4.45;;
38851;SDS011;24605;50.092;9.182;2023-07-29T01:45:38;5.70;;;4.53;;
38851;SDS011;24605;50.092;9.182;2023-07-29T01:48:05;12.32;;;4.82;;
38851;SDS011;24605;50.092;9.182;2023-07-29T01:50:32;6.72;;;4.70;;
38851;SDS011;24605;50.092;9.182;2023-07-29T01:52:58;5.72;;;4.30;;
38851;SDS011;24605;50.092;9.182;2023-07-29T01:55:25;7.72;;;4.57;;
38851;SDS011;24605;50.092;9.182;2023-07-29T01:57:53;5.57;;;4.38;;
38851;SDS011;24605;50.092;9.182;2023-07-29T02:00:19;6.93;;;4.43;;
38851;SDS011;24605;50.092;9.182;2023-07-29T02:02:47;8.45;;;4.88;;
38851;SDS011;24605;50.092;9.182;2023-07-29T02:05:13;6.00;;;4.22;;
38851;SDS011;24605;50.092;9.182;2023-07-29T02:07:40;7.40;;;4.60;;
38851;SDS011;24605;50.092;9.182;2023-07-29T02:10:06;5.95;;;4.40;;
38851;SDS011;24605;50.092;9.182;2023-07-29T02:12:33;8.43;;;4.18;;
38851;SDS011;24605;50.092;9.182;2023-07-29T02:15:01;6.85;;;4.18;;
38851;SDS011;24605;50.092;9.182;2023-07-29T02:17:28;5.28;;;3.75;;
38851;SDS011;24605;50.092;9.182;2023-07-29T02:19:54;8.65;;;4.43;;
38851;SDS011;24605;50.092;9.182;2023-07-29T02:22:21;7.18;;;3.85;;
38851;SDS011;24605;50.092;9.182;2023-07-29T02:24:47;6.70;;;4.22;;
38851;SDS011;24605;50.092;9.182;2023-07-29T02:27:14;5.65;;;3.83;;
38851;SDS011;24605;50.092;9.182;2023-07-29T02:29:39;6.30;;;3.97;;
38851;SDS011;24605;50.092;9.182;2023-07-29T02:32:07;7.38;;;3.75;;
38851;SDS011;24605;50.092;9.182;2023-07-29T02:34:34;5.90;;;3.80;;
38851;SDS011;24605;50.092;9.182;2023-07-29T02:37:00;4.18;;;3.17;;
38851;SDS011;24605;50.092;9.182;2023-07-29T02:39:27;6.07;;;3.47;;
38851;SDS011;24605;50.092;9.182;2023-07-29T02:41:53;6.05;;;3.53;;
38851;SDS011;24605;50.092;9.182;2023-07-29T02:44:21;6.13;;;3.42;;
38851;SDS011;24605;50.092;9.182;2023-07-29T02:46:47;8.25;;;3.88;;
38851;SDS011;24605;50.092;9.182;2023-07-29T02:49:15;8.25;;;3.70;;
38851;SDS011;24605;50.092;9.182;2023-07-29T02:51:41;4.63;;;3.35;;
38851;SDS011;24605;50.092;9.182;2023-07-29T02:54:08;5.10;;;3.80;;
38851;SDS011;24605;50.092;9.182;2023-07-29T02:56:34;7.22;;;3.50;;
38851;SDS011;24605;50.092;9.182;2023-07-29T02:59:01;4.50;;;3.50;;
38851;SDS011;24605;50.092;9.182;2023-07-29T03:01:27;5.30;;;3.45;;
38851;SDS011;24605;50.092;9.182;2023-07-29T03:03:54;5.32;;;3.35;;
38851;SDS011;24605;50.092;9.182;2023-07-29T03:06:22;7.97;;;3.65;;
38851;SDS011;24605;50.092;9.182;2023-07-29T03:08:48;6.25;;;3.80;;
38851;SDS011;24605;50.092;9.182;2023-07-29T03:11:15;6.35;;;3.78;;
38851;SDS011;24605;50.092;9.182;2023-07-29T03:13:42;10.88;;;3.63;;
38851;SDS011;24605;50.092;9.182;2023-07-29T03:16:09;4.50;;;3.40;;
38851;SDS011;24605;50.092;9.182;2023-07-29T03:18:36;7.20;;;3.90;;
38851;SDS011;24605;50.092;9.182;2023-07-29T03:21:03;5.65;;;3.45;;
38851;SDS011;24605;50.092;9.182;2023-07-29T03:23:31;6.97;;;3.50;;
38851;SDS011;24605;50.092;9.182;2023-07-29T03:25:59;5.03;;;3.40;;
38851;SDS011;24605;50.092;9.182;2023-07-29T03:28:27;7.15;;;3.53;;
38851;SDS011;24605;50.092;9.182;2023-07-29T03:30:55;6.18;;;3.75;;
38851;SDS011;24605;50.092;9.182;2023-07-29T03:33:22;4.90;;;3.63;;
38851;SDS011;24605;50.092;9.182;2023-07-29T03:35:49;5.85;;;3.85;;
38851;SDS011;24605;50.092;9.182;2023-07-29T03:38:15;7.57;;;4.05;;
38851;SDS011;24605;50.092;9.182;2023-07-29T03:40:43;6.35;;;4.45;;
38851;SDS011;24605;50.092;9.182;2023-07-29T03:43:10;7.88;;;4.60;;
38851;SDS011;24605;50.092;9.182;2023-07-29T03:45:37;7.95;;;4.03;;
38851;SDS011;24605;50.092;9.182;2023-07-29T03:48:04;11.13;;;4.05;;
38851;SDS011;24605;50.092;9.182;2023-07-29T03:50:32;4.35;;;3.38;;
38851;SDS011;24605;50.092;9.182;2023-07-29T03:52:59;9.93;;;3.90;;
38851;SDS011;24605;50.092;9.182;2023-07-29T03:55:26;5.72;;;4.15;;
38851;SDS011;24605;50.092;9.182;2023-07-29T03:57:56;5.03;;;3.65;;
38851;SDS011;24605;50.092;9.182;2023-07-29T04:00:22;6.22;;;3.72;;
38851;SDS011;24605;50.092;9.182;2023-07-29T04:02:49;5.85;;;3.70;;
38851;SDS011;24605;50.092;9.182;2023-07-29T04:05:15;6.63;;;4.20;;
38851;SDS011;24605;50.092;9.182;2023-07-29T04:07:42;5.85;;;4.13;;
38851;SDS011;24605;50.092;9.182;2023-07-29T04:10:09;8.02;;;4.50;;
38851;SDS011;24605;50.092;9.182;2023-07-29T04:12:35;6.85;;;4.40;;
38851;SDS011;24605;50.092;9.182;2023-07-29T04:15:04;7.35;;;4.60;;
38851;SDS011;24605;50.092;9.182;2023-07-29T04:17:31;6.22;;;4.28;;
38851;SDS011;24605;50.092;9.182;2023-07-29T04:19:57;5.45;;;4.15;;
38851;SDS011;24605;50.092;9.182;2023-07-29T04:22:24;5.32;;;3.92;;
38851;SDS011;24605;50.092;9.182;2023-07-29T04:24:50;5.18;;;3.63;;
38851;SDS011;24605;50.092;9.182;2023-07-29T04:27:17;8.43;;;4.57;;
38851;SDS011;24605;50.092;9.182;2023-07-29T04:29:43;5.88;;;4.05;;
38851;SDS011;24605;50.092;9.182;2023-07-29T04:32:11;5.97;;;4.13;;
38851;SDS011;24605;50.092;9.182;2023-07-29T04:34:37;5.43;;;3.63;;
38851;SDS011;24605;50.092;9.182;2023-07-29T04:37:04;6.25;;;3.70;;
38851;SDS011;24605;50.092;9.182;2023-07-29T04:39:31;6.18;;;4.07;;
38851;SDS011;24605;50.092;9.182;2023-07-29T04:41:58;6.25;;;4.20;;
38851;SDS011;24605;50.092;9.182;2023-07-29T04:44:25;5.30;;;3.90;;
38851;SDS011;24605;50.092;9.182;2023-07-29T04:46:52;7.97;;;3.90;;
38851;SDS011;24605;50.092;9.182;2023-07-29T04:49:20;5.00;;;3.63;;
38851;SDS011;24605;50.092;9.182;2023-07-29T04:51:46;4.10;;;3.28;;
38851;SDS011;24605;50.092;9.182;2023-07-29T04:54:13;7.18;;;3.90;;
38851;SDS011;24605;50.092;9.182;2023-07-29T04:56:39;6.15;;;3.75;;
38851;SDS011;24605;50.092;9.182;2023-07-29T04:59:06;8.48;;;3.92;;
38851;SDS011;24605;50.092;9.182;2023-07-29T05:01:33;6.05;;;3.78;;
38851;SDS011;24605;50.092;9.182;2023-07-29T05:04:00;5.93;;;3.92;;
38851;SDS011;24605;50.092;9.182;2023-07-29T05:06:28;5.20;;;3.13;;
38851;SDS011;24605;50.092;9.182;2023-07-29T05:08:56;10.98;;;3.85;;
38851;SDS011;24605;50.092;9.182;2023-07-29T05:11:23;7.25;;;3.45;;
38851;SDS011;24605;50.092;9.182;2023-07-29T05:13:50;5.30;;;3.05;;
38851;SDS011;24605;50.092;9.182;2023-07-29T05:16:16;5.03;;;3.50;;
38851;SDS011;24605;50.092;9.182;2023-07-29T05:18:43;7.10;;;3.50;;
38851;SDS011;24605;50.092;9.182;2023-07-29T05:21:09;5.13;;;3.90;;
38851;SDS011;24605;50.092;9.182;2023-07-29T05:23:37;7.22;;;3.65;;
38851;SDS011;24605;50.092;9.182;2023-07-29T05:26:04;5.03;;;3.40;;
38851;SDS011;24605;50.092;9.182;2023-07-29T05:28:30;4.72;;;3.22;;
38851;SDS011;24605;50.092;9.182;2023-07-29T05:30:57;7.80;;;3.85;;
38851;SDS011;24605;50.092;9.182;2023-07-29T05:33:26;4.60;;;3.03;;
38851;SDS011;24605;50.092;9.182;2023-07-29T05:35:53;6.32;;;2.90;;
38851;SDS011;24605;50.092;9.182;2023-07-29T05:38:19;4.45;;;2.90;;
38851;SDS011;24605;50.092;9.182;2023-07-29T05:40:48;5.82;;;3.20;;
38851;SDS011;24605;50.092;9.182;2023-07-29T05:43:15;5.68;;;2.90;;
38851;SDS011;24605;50.092;9.182;2023-07-29T05:45:41;5.13;;;2.88;;
38851;SDS011;24605;50.092;9.182;2023-07-29T05:48:08;4.10;;;2.80;;
38851;SDS011;24605;50.092;9.182;2023-07-29T05:50:34;4.28;;;2.83;;
38851;SDS011;24605;50.092;9.182;2023-07-29T05:53:01;4.30;;;3.13;;
38851;SDS011;24605;50.092;9.182;2023-07-29T05:55:27;5.55;;;2.75;;
38851;SDS011;24605;50.092;9.182;2023-07-29T05:57:56;5.93;;;2.70;;
38851;SDS011;24605;50.092;9.182;2023-07-29T06:00:22;5.63;;;2.72;;
38851;SDS011;24605;50.092;9.182;2023-07-29T06:02:53;6.82;;;2.75;;
38851;SDS011;24605;50.092;9.182;2023-07-29T06:05:19;4.13;;;2.78;;
38851;SDS011;24605;50.092;9.182;2023-07-29T06:07:45;4.00;;;2.42;;
38851;SDS011;24605;50.092;9.182;2023-07-29T06:10:13;6.18;;;3.03;;
38851;SDS011;24605;50.092;9.182;2023-07-29T06:12:42;3.67;;;2.78;;
38851;SDS011;24605;50.092;9.182;2023-07-29T06:15:10;4.50;;;2.50;;
38851;SDS011;24605;50.092;9.182;2023-07-29T06:17:37;5.05;;;2.70;;
38851;SDS011;24605;50.092;9.182;2023-07-29T06:20:03;5.30;;;2.40;;
38851;SDS011;24605;50.092;9.182;2023-07-29T06:22:31;4.38;;;2.28;;
38851;SDS011;24605;50.092;9.182;2023-07-29T06:24:57;3.75;;;2.30;;
38851;SDS011;24605;50.092;9.182;2023-07-29T06:27:24;3.65;;;2.08;;
38851;SDS011;24605;50.092;9.182;2023-07-29T06:29:51;3.35;;;2.20;;
38851;SDS011;24605;50.092;9.182;2023-07-29T06:32:21;3.75;;;2.13;;
38851;SDS011;24605;50.092;9.182;2023-07-29T06:34:48;4.78;;;2.30;;
38851;SDS011;24605;50.092;9.182;2023-07-29T06:37:16;4.07;;;2.20;;
38851;SDS011;24605;50.092;9.182;2023-07-29T06:39:43;6.10;;;2.58;;
38851;SDS011;24605;50.092;9.182;2023-07-29T06:42:09;3.95;;;2.20;;
38851;SDS011;24605;50.092;9.182;2023-07-29T06:44:36;4.03;;;2.40;;
38851;SDS011;24605;50.092;9.182;2023-07-29T06:47:03;3.70;;;2.50;;
38851;SDS011;24605;50.092;9.182;2023-07-29T06:49:31;4.57;;;2.70;;
38851;SDS011;24605;50.092;9.182;2023-07-29T06:51:57;5.03;;;2.15;;
38851;SDS011;24605;50.092;9.182;2023-07-29T06:54:24;6.97;;;2.80;;
38851;SDS011;24605;50.092;9.182;2023-07-29T06:56:50;3.53;;;2.35;;
38851;SDS011;24605;50.092;9.182;2023-07-29T06:59:17;4.30;;;2.53;;
38851;SDS011;24605;50.092;9.182;2023-07-29T07:01:43;5.05;;;2.35;;
38851;SDS011;24605;50.092;9.182;2023-07-29T07:04:10;4.97;;;2.75;;
38851;SDS011;24605;50.092;9.182;2023-07-29T07:06:38;4.75;;;2.65;;
38851;SDS011;24605;50.092;9.182;2023-07-29T07:09:04;4.95;;;2.97;;
38851;SDS011;24605;50.092;9.182;2023-07-29T07:11:31;7.85;;;3.30;;
38851;SDS011;24605;50.092;9.182;2023-07-29T07:13:57;5.72;;;3.13;;
38851;SDS011;24605;50.092;9.182;2023-07-29T07:16:24;8.32;;;3.10;;
38851;SDS011;24605;50.092;9.182;2023-07-29T07:18:50;6.43;;;2.90;;
38851;SDS011;24605;50.092;9.182;2023-07-29T07:21:17;5.50;;;3.13;;
38851;SDS011;24605;50.092;9.182;2023-07-29T07:23:45;5.60;;;2.90;;
38851;SDS011;24605;50.092;9.182;2023-07-29T07:26:11;4.15;;;2.40;;
38851;SDS011;24605;50.092;9.182;2023-07-29T07:28:38;4.93;;;2.72;;
38851;SDS011;24605;50.092;9.182;2023-07-29T07:31:08;5.43;;;3.05;;
38851;SDS011;24605;50.092;9.182;2023-07-29T07:33:39;5.72;;;2.90;;
38851;SDS011;24605;50.092;9.182;2023-07-29T07:36:09;3.92;;;2.70;;
38851;SDS011;24605;50.092;9.182;2023-07-29T07:38:36;4.50;;;2.70;;
38851;SDS011;24605;50.092;9.182;2023-07-29T07:41:04;6.20;;;2.90;;
38851;SDS011;24605;50.092;9.182;2023-07-29T07:43:30;6.13;;;3.10;;
38851;SDS011;24605;50.092;9.182;2023-07-29T07:45:57;7.30;;;3.20;;
38851;SDS011;24605;50.092;9.182;2023-07-29T07:48:25;10.05;;;2.92;;
38851;SDS011;24605;50.092;9.182;2023-07-29T07:50:51;3.80;;;2.50;;
38851;SDS011;24605;50.092;9.182;2023-07-29T07:53:18;9.88;;;3.10;;
38851;SDS011;24605;50.092;9.182;2023-07-29T07:55:45;4.93;;;3.00;;
38851;SDS011;24605;50.092;9.182;2023-07-29T07:58:13;5.88;;;3.00;;
38851;SDS011;24605;50.092;9.182;2023-07-29T08:00:39;7.82;;;2.72;;
38851;SDS011;24605;50.092;9.182;2023-07-29T08:03:06;8.95;;;4.70;;
38851;SDS011;24605;50.092;9.182;2023-07-29T08:05:32;5.13;;;3.08;;
38851;SDS011;24605;50.092;9.182;2023-07-29T08:07:59;6.20;;;3.08;;
38851;SDS011;24605;50.092;9.182;2023-07-29T08:10:25;5.90;;;3.08;;
38851;SDS011;24605;50.092;9.182;2023-07-29T08:12:52;5.50;;;3.55;;
38851;SDS011;24605;50.092;9.182;2023-07-29T08:15:19;5.35;;;3.50;;
38851;SDS011;24605;50.092;9.182;2023-07-29T08:17:47;6.88;;;3.58;;
38851;SDS011;24605;50.092;9.182;2023-07-29T08:20:13;3.58;;;2.38;;
38851;SDS011;24605;50.092;9.182;2023-07-29T08:22:40;3.70;;;2.75;;
38851;SDS011;24605;50.092;9.182;2023-07-29T08:25:07;5.57;;;3.83;;
38851;SDS011;24605;50.092;9.182;2023-07-29T08:27:34;6.05;;;3.55;;
38851;SDS011;24605;50.092;9.182;2023-07-29T08:30:00;5.97;;;3.55;;
38851;SDS011;24605;50.092;9.182;2023-07-29T08:32:28;7.18;;;3.22;;
38851;SDS011;24605;50.092;9.182;2023-07-29T08:34:55;3.53;;;2.55;;
38851;SDS011;24605;50.092;9.182;2023-07-29T08:37:21;3.45;;;2.50;;
38851;SDS011;24605;50.092;9.182;2023-07-29T08:39:48;3.45;;;2.33;;
38851;SDS011;24605;50.092;9.182;2023-07-29T08:42:15;4.95;;;2.20;;
38851;SDS011;24605;50.092;9.182;2023-07-29T08:44:45;3.95;;;2.20;;
38851;SDS011;24605;50.092;9.182;2023-07-29T08:47:15;3.60;;;2.20;;
38851;SDS011;24605;50.092;9.182;2023-07-29T08:49:43;3.50;;;2.15;;
38851;SDS011;24605;50.092;9.182;2023-07-29T08:52:11;6.22;;;2.35;;
38851;SDS011;24605;50.092;9.182;2023-07-29T08:54:38;5.00;;;2.10;;
38851;SDS011;24605;50.092;9.182;2023-07-29T08:57:05;3.75;;;1.80;;
38851;SDS011;24605;50.092;9.182;2023-07-29T08:59:32;2.88;;;1.77;;
38851;SDS011;24605;50.092;9.182;2023-07-29T09:01:59;4.05;;;1.58;;
38851;SDS011;24605;50.092;9.182;2023-07-29T09:04:26;2.88;;;1.42;;
38851;SDS011;24605;50.092;9.182;2023-07-29T09:06:55;3.60;;;1.48;;
38851;SDS011;24605;50.092;9.182;2023-07-29T09:09:22;7.20;;;3.15;;
38851;SDS011;24605;50.092;9.182;2023-07-29T09:11:49;3.08;;;1.40;;
38851;SDS011;24605;50.092;9.182;2023-07-29T09:14:16;3.58;;;1.20;;
38851;SDS011;24605;50.092;9.182;2023-07-29T09:16:43;4.30;;;1.20;;
38851;SDS011;24605;50.092;9.182;2023-07-29T09:19:10;3.80;;;1.50;;
38851;SDS011;24605;50.092;9.182;2023-07-29T09:21:38;2.40;;;1.08;;
38851;SDS011;24605;50.092;9.182;2023-07-29T09:24:06;3.22;;;1.00;;
38851;SDS011;24605;50.092;9.182;2023-07-29T09:26:33;3.88;;;1.30;;
38851;SDS011;24605;50.092;9.182;2023-07-29T09:29:00;1.95;;;1.25;;
38851;SDS011;24605;50.092;9.182;2023-07-29T09:31:27;2.30;;;1.20;;
38851;SDS011;24605;50.092;9.182;2023-07-29T09:33:55;2.80;;;1.20;;
38851;SDS011;24605;50.092;9.182;2023-07-29T09:36:23;3.38;;;1.45;;
38851;SDS011;24605;50.092;9.182;2023-07-29T09:38:51;3.63;;;1.77;;
38851;SDS011;24605;50.092;9.182;2023-07-29T09:41:20;2.85;;;1.63;;
38851;SDS011;24605;50.092;9.182;2023-07-29T09:43:51;5.78;;;1.50;;
38851;SDS011;24605;50.092;9.182;2023-07-29T09:46:22;4.05;;;1.50;;
38851;SDS011;24605;50.092;9.182;2023-07-29T09:48:52;4.88;;;1.40;;
38851;SDS011;24605;50.092;9.182;2023-07-29T09:51:19;5.50;;;1.63;;
38851;SDS011;24605;50.092;9.182;2023-07-29T09:53:46;5.78;;;1.67;;
38851;SDS011;24605;50.092;9.182;2023-07-29T09:56:13;3.95;;;1.23;;
38851;SDS011;24605;50.092;9.182;2023-07-29T09:58:43;2.70;;;1.20;;
38851;SDS011;24605;50.092;9.182;2023-07-29T10:01:10;2.70;;;1.30;;
38851;SDS011;24605;50.092;9.182;2023-07-29T10:03:37;2.08;;;1.23;;
38851;SDS011;24605;50.092;9.182;2023-07-29T10:06:04;2.65;;;1.23;;
38851;SDS011;24605;50.092;9.182;2023-07-29T10:08:32;2.92;;;1.20;;
38851;SDS011;24605;50.092;9.182;2023-07-29T10:11:00;3.25;;;1.45;;
38851;SDS011;24605;50.092;9.182;2023-07-29T10:13:28;4.35;;;1.30;;
38851;SDS011;24605;50.092;9.182;2023-07-29T10:15:56;1.95;;;1.13;;
38851;SDS011;24605;50.092;9.182;2023-07-29T10:18:23;1.90;;;1.13;;
38851;SDS011;24605;50.092;9.182;2023-07-29T10:20:52;2.65;;;0.93;;
38851;SDS011;24605;50.092;9.182;2023-07-29T10:23:20;2.70;;;1.05;;
38851;SDS011;24605;50.092;9.182;2023-07-29T10:25:49;3.25;;;1.90;;
38851;SDS011;24605;50.092;9.182;2023-07-29T10:28:20;3.03;;;1.20;;
38851;SDS011;24605;50.092;9.182;2023-07-29T10:30:51;3.58;;;1.65;;
38851;SDS011;24605;50.092;9.182;2023-07-29T10:33:19;3.83;;;1.40;;
38851;SDS011;24605;50.092;9.182;2023-07-29T10:35:46;2.75;;;1.10;;
38851;SDS011;24605;50.092;9.182;2023-07-29T10:38:13;3.90;;;1.20;;
38851;SDS011;24605;50.092;9.182;2023-07-29T10:40:44;3.90;;;1.45;;
38851;SDS011;24605;50.092;9.182;2023-07-29T10:43:12;3.97;;;1.50;;
38851;SDS011;24605;50.092;9.182;2023-07-29T10:45:40;3.80;;;1.20;;
38851;SDS011;24605;50.092;9.182;2023-07-29T10:48:09;3.08;;;1.50;;
38851;SDS011;24605;50.092;9.182;2023-07-29T10:50:38;2.10;;;1.30;;
38851;SDS011;24605;50.092;9.182;2023-07-29T10:53:04;2.70;;;1.20;;
38851;SDS011;24605;50.092;9.182;2023-07-29T10:55:32;1.98;;;1.00;;
38851;SDS011;24605;50.092;9.182;2023-07-29T10:58:06;3.00;;;1.40;;
38851;SDS011;24605;50.092;9.182;2023-07-29T11:00:34;5.03;;;1.45;;
38851;SDS011;24605;50.092;9.182;2023-07-29T11:03:01;2.50;;;1.10;;
38851;SDS011;24605;50.092;9.182;2023-07-29T11:05:42;1.88;;;1.17;;
38851;SDS011;24605;50.092;9.182;2023-07-29T11:08:17;3.00;;;1.00;;
38851;SDS011;24605;50.092;9.182;2023-07-29T11:10:45;1.92;;;1.13;;
38851;SDS011;24605;50.092;9.182;2023-07-29T11:13:25;3.15;;;1.20;;
38851;SDS011;24605;50.092;9.182;2023-07-29T11:15:52;2.42;;;1.20;;
38851;SDS011;24605;50.092;9.182;2023-07-29T11:18:20;2.35;;;1.17;;
38851;SDS011;24605;50.092;9.182;2023-07-29T11:20:48;3.03;;;1.23;;
38851;SDS011;24605;50.092;9.182;2023-07-29T11:23:14;3.88;;;1.50;;
38851;SDS011;24605;50.092;9.182;2023-07-29T11:25:41;2.53;;;1.38;;
38851;SDS011;24605;50.092;9.182;2023-07-29T11:28:08;3.20;;;1.02;;
38851;SDS011;24605;50.092;9.182;2023-07-29T11:30:36;2.28;;;1.10;;
38851;SDS011;24605;50.092;9.182;2023-07-29T11:33:05;1.75;;;1.10;;
38851;SDS011;24605;50.092;9.182;2023-07-29T11:35:31;4.30;;;1.23;;
38851;SDS011;24605;50.092;9.182;2023-07-29T11:37:59;2.60;;;1.10;;
38851;SDS011;24605;50.092;9.182;2023-07-29T11:40:26;2.03;;;1.00;;
38851;SDS011;24605;50.092;9.182;2023-07-29T11:42:52;1.88;;;0.95;;
38851;SDS011;24605;50.092;9.182;2023-07-29T11:45:20;2.88;;;1.30;;
38851;SDS011;24605;50.092;9.182;2023-07-29T11:47:48;3.67;;;1.30;;
38851;SDS011;24605;50.092;9.182;2023-07-29T11:50:15;2.08;;;1.02;;
38851;SDS011;24605;50.092;9.182;2023-07-29T11:52:42;2.47;;;1.10;;
38851;SDS011;24605;50.092;9.182;2023-07-29T11:55:12;2.50;;;1.17;;
38851;SDS011;24605;50.092;9.182;2023-07-29T11:57:39;3.05;;;1.20;;
38851;SDS011;24605;50.092;9.182;2023-07-29T12:00:07;2.50;;;1.20;;
38851;SDS011;24605;50.092;9.182;2023-07-29T12:02:37;2.38;;;1.35;;
38851;SDS011;24605;50.092;9.182;2023-07-29T12:05:05;3.80;;;1.20;;
38851;SDS011;24605;50.092;9.182;2023-07-29T12:07:32;2.67;;;1.25;;
38851;SDS011;24605;50.092;9.182;2023-07-29T12:09:59;2.45;;;1.35;;
38851;SDS011;24605;50.092;9.182;2023-07-29T12:12:27;5.03;;;1.30;;
38851;SDS011;24605;50.092;9.182;2023-07-29T12:14:54;3.33;;;1.20;;
38851;SDS011;24605;50.092;9.182;2023-07-29T12:17:20;4.07;;;1.10;;
38851;SDS011;24605;50.092;9.182;2023-07-29T12:19:47;4.30;;;1.20;;
38851;SDS011;24605;50.092;9.182;2023-07-29T12:22:17;2.90;;;1.40;;
38851;SDS011;24605;50.092;9.182;2023-07-29T12:24:45;8.60;;;1.60;;
38851;SDS011;24605;50.092;9.182;2023-07-29T12:27:12;2.47;;;1.20;;
38851;SDS011;24605;50.092;9.182;2023-07-29T12:29:42;3.15;;;1.30;;
38851;SDS011;24605;50.092;9.182;2023-07-29T12:32:11;2.55;;;1.17;;
38851;SDS011;24605;50.092;9.182;2023-07-29T12:34:39;8.80;;;2.08;;
38851;SDS011;24605;50.092;9.182;2023-07-29T12:37:05;5.97;;;1.63;;
38851;SDS011;24605;50.092;9.182;2023-07-29T12:39:34;6.60;;;1.83;;
38851;SDS011;24605;50.092;9.182;2023-07-29T12:42:02;3.72;;;1.92;;
38851;SDS011;24605;50.092;9.182;2023-07-29T12:44:30;4.00;;;1.90;;
38851;SDS011;24605;50.092;9.182;2023-07-29T12:47:00;6.03;;;1.90;;
38851;SDS011;24605;50.092;9.182;2023-07-29T12:49:29;5.95;;;2.28;;
38851;SDS011;24605;50.092;9.182;2023-07-29T12:51:55;3.42;;;1.88;;
38851;SDS011;24605;50.092;9.182;2023-07-29T12:54:22;2.97;;;1.83;;
38851;SDS011;24605;50.092;9.182;2023-07-29T12:56:48;4.07;;;1.70;;
38851;SDS011;24605;50.092;9.182;2023-07-29T12:59:15;4.28;;;2.10;;
38851;SDS011;24605;50.092;9.182;2023-07-29T13:01:42;4.38;;;2.20;;
38851;SDS011;24605;50.092;9.182;2023-07-29T13:04:10;4.25;;;2.10;;
38851;SDS011;24605;50.092;9.182;2023-07-29T13:06:37;5.15;;;2.00;;
38851;SDS011;24605;50.092;9.182;2023-07-29T13:09:03;4.88;;;2.00;;
38851;SDS011;24605;50.092;9.182;2023-07-29T13:11:31;3.35;;;2.00;;
38851;SDS011;24605;50.092;9.182;2023-07-29T13:13:58;4.68;;;1.92;;
38851;SDS011;24605;50.092;9.182;2023-07-29T13:16:25;4.50;;;1.77;;
38851;SDS011;24605;50.092;9.182;2023-07-29T13:18:52;4.30;;;1.85;;
38851;SDS011;24605;50.092;9.182;2023-07-29T13:21:20;4.00;;;1.83;;
38851;SDS011;24605;50.092;9.182;2023-07-29T13:23:46;4.43;;;1.90;;
38851;SDS011;24605;50.092;9.182;2023-07-29T13:26:13;4.50;;;2.22;;
38851;SDS011;24605;50.092;9.182;2023-07-29T13:28:39;4.82;;;2.03;;
38851;SDS011;24605;50.092;9.182;2023-07-29T13:31:06;4.93;;;1.90;;
38851;SDS011;24605;50.092;9.182;2023-07-29T13:33:32;4.53;;;1.90;;
38851;SDS011;24605;50.092;9.182;2023-07-29T13:35:59;4.63;;;1.92;;
38851;SDS011;24605;50.092;9.182;2023-07-29T13:38:28;5.60;;;1.95;;
38851;SDS011;24605;50.092;9.182;2023-07-29T13:40:54;2.90;;;1.65;;
38851;SDS011;24605;50.092;9.182;2023-07-29T13:43:21;3.80;;;1.85;;
38851;SDS011;24605;50.092;9.182;2023-07-29T13:45:48;3.35;;;1.60;;
38851;SDS011;24605;50.092;9.182;2023-07-29T13:48:15;3.08;;;1.50;;
38851;SDS011;24605;50.092;9.182;2023-07-29T13:50:41;4.53;;;1.55;;
38851;SDS011;24605;50.092;9.182;2023-07-29T13:53:08;3.30;;;1.70;;
38851;SDS011;24605;50.092;9.182;2023-07-29T13:55:36;4.47;;;1.70;;
38851;SDS011;24605;50.092;9.182;2023-07-29T13:58:03;3.65;;;1.55;;
38851;SDS011;24605;50.092;9.182;2023-07-29T14:00:29;3.45;;;1.42;;
38851;SDS011;24605;50.092;9.182;2023-07-29T14:02:56;3.80;;;1.60;;
38851;SDS011;24605;50.092;9.182;2023-07-29T14:05:22;2.88;;;1.33;;
38851;SDS011;24605;50.092;9.182;2023-07-29T14:07:49;4.72;;;1.48;;
38851;SDS011;24605;50.092;9.182;2023-07-29T14:10:16;2.60;;;1.13;;
38851;SDS011;24605;50.092;9.182;2023-07-29T14:12:44;3.45;;;1.58;;
38851;SDS011;24605;50.092;9.182;2023-07-29T14:15:11;3.13;;;1.45;;
38851;SDS011;24605;50.092;9.182;2023-07-29T14:17:38;3.17;;;1.27;;
38851;SDS011;24605;50.092;9.182;2023-07-29T14:20:05;3.83;;;1.30;;
38851;SDS011;24605;50.092;9.182;2023-07-29T14:22:32;2.33;;;1.33;;
38851;SDS011;24605;50.092;9.182;2023-07-29T14:24:59;3.10;;;1.45;;
38851;SDS011;24605;50.092;9.182;2023-07-29T14:27:25;4.13;;;1.30;;
38851;SDS011;24605;50.092;9.182;2023-07-29T14:29:53;2.08;;;1.10;;
38851;SDS011;24605;50.092;9.182;2023-07-29T14:32:20;2.13;;;1.05;;
38851;SDS011;24605;50.092;9.182;2023-07-29T14:34:46;2.70;;;1.10;;
38851;SDS011;24605;50.092;9.182;2023-07-29T14:37:14;3.10;;;1.55;;
38851;SDS011;24605;50.092;9.182;2023-07-29T14:39:40;3.58;;;1.40;;
38851;SDS011;24605;50.092;9.182;2023-07-29T14:42:07;2.22;;;1.20;;
38851;SDS011;24605;50.092;9.182;2023-07-29T14:44:33;2.67;;;1.40;;
38851;SDS011;24605;50.092;9.182;2023-07-29T14:47:01;2.15;;;1.15;;
38851;SDS011;24605;50.092;9.182;2023-07-29T14:49:27;3.03;;;1.27;;